sensor_id;sensor_type;location;lat;lon;timestamp;P1;durP1;ratioP1;P2;durP2;ratioP2
3487;SDS011;38546;48.170;11.724;2022-10-03T00:03:21;13.73;;;7.40;;
3487;SDS011;38546;48.170;11.724;2022-10-03T00:07:01;15.00;;;8.70;;
3487;SDS011;38546;48.170;11.724;2022-10-03T00:36:35;17.80;;;9.03;;
3487;SDS011;38546;48.170;11.724;2022-10-03T00:40:18;19.20;;;10.00;;
3487;SDS011;38546;48.170;11.724;2022-10-03T00:44:09;18.97;;;9.17;;
3487;SDS011;38546;48.170;11.724;2022-10-03T00:50:11;16.17;;;9.00;;
3487;SDS011;38546;48.170;11.724;2022-10-03T00:53:52;21.67;;;9.83;;
3487;SDS011;38546;48.170;11.724;2022-10-03T00:58:37;24.37;;;9.67;;
3487;SDS011;38546;48.170;11.724;2022-10-03T01:03:40;25.77;;;10.37;;
3487;SDS011;38546;48.170;11.724;2022-10-03T01:06:44;21.53;;;10.90;;
3487;SDS011;38546;48.170;11.724;2022-10-03T01:10:10;21.63;;;11.40;;
3487;SDS011;38546;48.170;11.724;2022-10-03T01:13:39;33.47;;;12.40;;
3487;SDS011;38546;48.170;11.724;2022-10-03T01:17:09;26.17;;;11.73;;
3487;SDS011;38546;48.170;11.724;2022-10-03T01:20:34;25.30;;;12.23;;
3487;SDS011;38546;48.170;11.724;2022-10-03T01:32:16;30.13;;;13.43;;
3487;SDS011;38546;48.170;11.724;2022-10-03T01:37:39;21.70;;;12.13;;
3487;SDS011;38546;48.170;11.724;2022-10-03T01:41:15;30.53;;;12.60;;
3487;SDS011;38546;48.170;11.724;2022-10-03T01:44:24;29.93;;;12.50;;
3487;SDS011;38546;48.170;11.724;2022-10-03T01:51:00;36.63;;;13.47;;
3487;SDS011;38546;48.170;11.724;2022-10-03T01:56:37;28.33;;;13.70;;
3487;SDS011;38546;48.170;11.724;2022-10-03T02:08:43;35.67;;;14.83;;
3487;SDS011;38546;48.170;11.724;2022-10-03T02:13:45;33.77;;;16.00;;
3487;SDS011;38546;48.170;11.724;2022-10-03T02:17:02;38.93;;;14.83;;
3487;SDS011;38546;48.170;11.724;2022-10-03T02:24:49;41.87;;;15.63;;
3487;SDS011;38546;48.170;11.724;2022-10-03T02:28:08;38.37;;;15.90;;
3487;SDS011;38546;48.170;11.724;2022-10-03T02:50:25;28.17;;;13.03;;
3487;SDS011;38546;48.170;11.724;2022-10-03T03:03:46;38.37;;;14.60;;
3487;SDS011;38546;48.170;11.724;2022-10-03T03:08:35;31.67;;;14.80;;
3487;SDS011;38546;48.170;11.724;2022-10-03T03:12:07;39.43;;;15.50;;
3487;SDS011;38546;48.170;11.724;2022-10-03T03:31:16;37.50;;;15.40;;
3487;SDS011;38546;48.170;11.724;2022-10-03T03:34:19;34.33;;;16.70;;
3487;SDS011;38546;48.170;11.724;2022-10-03T03:37:42;35.53;;;14.13;;
3487;SDS011;38546;48.170;11.724;2022-10-03T03:41:13;34.33;;;16.23;;
3487;SDS011;38546;48.170;11.724;2022-10-03T03:46:20;39.70;;;17.20;;
3487;SDS011;38546;48.170;11.724;2022-10-03T03:59:48;48.60;;;14.63;;
3487;SDS011;38546;48.170;11.724;2022-10-03T04:09:19;42.93;;;17.57;;
3487;SDS011;38546;48.170;11.724;2022-10-03T04:22:09;42.70;;;18.90;;
3487;SDS011;38546;48.170;11.724;2022-10-03T04:26:55;43.70;;;16.67;;
3487;SDS011;38546;48.170;11.724;2022-10-03T04:49:10;58.57;;;19.87;;
3487;SDS011;38546;48.170;11.724;2022-10-03T04:58:56;46.00;;;20.80;;
3487;SDS011;38546;48.170;11.724;2022-10-03T05:15:00;52.23;;;19.00;;
3487;SDS011;38546;48.170;11.724;2022-10-03T05:21:15;49.57;;;18.27;;
3487;SDS011;38546;48.170;11.724;2022-10-03T05:29:12;46.67;;;17.13;;
3487;SDS011;38546;48.170;11.724;2022-10-03T05:40:17;45.77;;;16.77;;
3487;SDS011;38546;48.170;11.724;2022-10-03T05:43:47;45.90;;;17.53;;
3487;SDS011;38546;48.170;11.724;2022-10-03T05:48:46;45.53;;;16.93;;
3487;SDS011;38546;48.170;11.724;2022-10-03T05:51:47;35.03;;;15.47;;
3487;SDS011;38546;48.170;11.724;2022-10-03T06:03:47;37.87;;;15.10;;
3487;SDS011;38546;48.170;11.724;2022-10-03T06:07:17;38.07;;;15.23;;
3487;SDS011;38546;48.170;11.724;2022-10-03T06:16:12;34.07;;;16.40;;
3487;SDS011;38546;48.170;11.724;2022-10-03T06:19:26;30.23;;;14.27;;
3487;SDS011;38546;48.170;11.724;2022-10-03T06:26:13;28.57;;;14.70;;
3487;SDS011;38546;48.170;11.724;2022-10-03T06:43:14;23.00;;;11.60;;
3487;SDS011;38546;48.170;11.724;2022-10-03T07:22:23;29.13;;;14.47;;
3487;SDS011;38546;48.170;11.724;2022-10-03T07:31:38;31.90;;;14.50;;
3487;SDS011;38546;48.170;11.724;2022-10-03T07:41:08;26.23;;;13.77;;
3487;SDS011;38546;48.170;11.724;2022-10-03T07:44:15;28.23;;;14.60;;
3487;SDS011;38546;48.170;11.724;2022-10-03T07:54:02;27.20;;;14.23;;
3487;SDS011;38546;48.170;11.724;2022-10-03T07:58:13;26.60;;;12.63;;
3487;SDS011;38546;48.170;11.724;2022-10-03T08:02:06;26.67;;;13.70;;
3487;SDS011;38546;48.170;11.724;2022-10-03T08:07:04;33.67;;;15.90;;
3487;SDS011;38546;48.170;11.724;2022-10-03T08:19:01;24.93;;;13.80;;
3487;SDS011;38546;48.170;11.724;2022-10-03T08:22:38;22.90;;;13.13;;
3487;SDS011;38546;48.170;11.724;2022-10-03T08:45:11;19.93;;;12.93;;
3487;SDS011;38546;48.170;11.724;2022-10-03T08:50:34;20.13;;;11.33;;
3487;SDS011;38546;48.170;11.724;2022-10-03T09:42:08;9.67;;;7.13;;
3487;SDS011;38546;48.170;11.724;2022-10-03T09:54:47;12.50;;;8.93;;
3487;SDS011;38546;48.170;11.724;2022-10-03T10:05:49;14.33;;;8.80;;
3487;SDS011;38546;48.170;11.724;2022-10-03T10:12:18;15.73;;;7.53;;
3487;SDS011;38546;48.170;11.724;2022-10-03T10:28:11;14.17;;;7.73;;
3487;SDS011;38546;48.170;11.724;2022-10-03T10:40:56;8.57;;;6.60;;
3487;SDS011;38546;48.170;11.724;2022-10-03T10:51:24;9.33;;;6.07;;
3487;SDS011;38546;48.170;11.724;2022-10-03T10:58:56;8.03;;;6.40;;
3487;SDS011;38546;48.170;11.724;2022-10-03T11:18:12;11.23;;;6.20;;
3487;SDS011;38546;48.170;11.724;2022-10-03T11:35:53;10.43;;;5.73;;
3487;SDS011;38546;48.170;11.724;2022-10-03T11:39:39;9.30;;;6.70;;
3487;SDS011;38546;48.170;11.724;2022-10-03T11:45:45;14.67;;;6.13;;
3487;SDS011;38546;48.170;11.724;2022-10-03T11:48:53;15.97;;;6.57;;
3487;SDS011;38546;48.170;11.724;2022-10-03T11:53:13;8.07;;;5.67;;
3487;SDS011;38546;48.170;11.724;2022-10-03T11:56:39;9.40;;;5.80;;
3487;SDS011;38546;48.170;11.724;2022-10-03T11:59:45;8.40;;;6.00;;
3487;SDS011;38546;48.170;11.724;2022-10-03T12:03:05;11.90;;;6.77;;
3487;SDS011;38546;48.170;11.724;2022-10-03T12:06:25;12.50;;;6.50;;
3487;SDS011;38546;48.170;11.724;2022-10-03T12:16:03;9.83;;;5.43;;
3487;SDS011;38546;48.170;11.724;2022-10-03T12:19:02;9.47;;;5.07;;
3487;SDS011;38546;48.170;11.724;2022-10-03T12:22:17;6.50;;;5.40;;
3487;SDS011;38546;48.170;11.724;2022-10-03T12:37:31;10.50;;;6.13;;
3487;SDS011;38546;48.170;11.724;2022-10-03T12:44:20;7.43;;;5.63;;
3487;SDS011;38546;48.170;11.724;2022-10-03T12:47:59;9.67;;;6.37;;
3487;SDS011;38546;48.170;11.724;2022-10-03T12:54:52;8.33;;;5.60;;
3487;SDS011;38546;48.170;11.724;2022-10-03T12:58:18;8.57;;;5.27;;
3487;SDS011;38546;48.170;11.724;2022-10-03T13:13:30;7.83;;;4.93;;
3487;SDS011;38546;48.170;11.724;2022-10-03T13:23:55;7.13;;;5.17;;
3487;SDS011;38546;48.170;11.724;2022-10-03T13:27:04;6.47;;;5.37;;
3487;SDS011;38546;48.170;11.724;2022-10-03T13:30:39;7.50;;;5.43;;
3487;SDS011;38546;48.170;11.724;2022-10-03T13:33:46;6.60;;;4.87;;
3487;SDS011;38546;48.170;11.724;2022-10-03T13:36:45;6.83;;;4.90;;
3487;SDS011;38546;48.170;11.724;2022-10-03T13:41:11;6.83;;;4.70;;
3487;SDS011;38546;48.170;11.724;2022-10-03T13:44:40;8.00;;;5.10;;
3487;SDS011;38546;48.170;11.724;2022-10-03T13:47:53;7.70;;;4.40;;
3487;SDS011;38546;48.170;11.724;2022-10-03T13:50:50;7.30;;;5.40;;
3487;SDS011;38546;48.170;11.724;2022-10-03T13:54:05;10.40;;;5.07;;
3487;SDS011;38546;48.170;11.724;2022-10-03T13:57:07;9.63;;;4.17;;
3487;SDS011;38546;48.170;11.724;2022-10-03T14:00:18;8.33;;;3.93;;
3487;SDS011;38546;48.170;11.724;2022-10-03T14:04:02;4.93;;;4.33;;
3487;SDS011;38546;48.170;11.724;2022-10-03T14:16:34;4.17;;;3.33;;
3487;SDS011;38546;48.170;11.724;2022-10-03T14:19:35;5.80;;;3.70;;
3487;SDS011;38546;48.170;11.724;2022-10-03T14:23:12;4.37;;;3.97;;
3487;SDS011;38546;48.170;11.724;2022-10-03T14:26:23;6.00;;;4.47;;
3487;SDS011;38546;48.170;11.724;2022-10-03T14:32:45;6.90;;;4.50;;
3487;SDS011;38546;48.170;11.724;2022-10-03T14:44:07;8.33;;;4.47;;
3487;SDS011;38546;48.170;11.724;2022-10-03T14:47:11;4.67;;;3.60;;
3487;SDS011;38546;48.170;11.724;2022-10-03T14:50:04;11.00;;;5.03;;
3487;SDS011;38546;48.170;11.724;2022-10-03T14:53:00;6.87;;;4.20;;
3487;SDS011;38546;48.170;11.724;2022-10-03T14:56:07;4.03;;;3.67;;
3487;SDS011;38546;48.170;11.724;2022-10-03T14:59:02;7.17;;;3.80;;
3487;SDS011;38546;48.170;11.724;2022-10-03T15:02:22;6.03;;;3.80;;
3487;SDS011;38546;48.170;11.724;2022-10-03T15:06:50;8.13;;;3.80;;
3487;SDS011;38546;48.170;11.724;2022-10-03T15:09:45;6.30;;;3.67;;
3487;SDS011;38546;48.170;11.724;2022-10-03T15:12:38;6.87;;;4.50;;
3487;SDS011;38546;48.170;11.724;2022-10-03T15:15:33;6.93;;;4.40;;
3487;SDS011;38546;48.170;11.724;2022-10-03T15:18:28;10.90;;;4.53;;
3487;SDS011;38546;48.170;11.724;2022-10-03T15:21:19;10.50;;;3.90;;
3487;SDS011;38546;48.170;11.724;2022-10-03T15:24:12;5.50;;;3.97;;
3487;SDS011;38546;48.170;11.724;2022-10-03T15:27:19;5.40;;;3.73;;
3487;SDS011;38546;48.170;11.724;2022-10-03T15:30:24;4.90;;;2.97;;
3487;SDS011;38546;48.170;11.724;2022-10-03T15:33:31;3.93;;;3.13;;
3487;SDS011;38546;48.170;11.724;2022-10-03T15:36:26;10.70;;;4.23;;
3487;SDS011;38546;48.170;11.724;2022-10-03T15:39:29;4.00;;;3.10;;
3487;SDS011;38546;48.170;11.724;2022-10-03T15:42:29;5.13;;;3.60;;
3487;SDS011;38546;48.170;11.724;2022-10-03T15:45:23;6.27;;;3.40;;
3487;SDS011;38546;48.170;11.724;2022-10-03T15:48:18;5.80;;;3.50;;
3487;SDS011;38546;48.170;11.724;2022-10-03T15:51:14;4.40;;;3.07;;
3487;SDS011;38546;48.170;11.724;2022-10-03T15:54:07;6.20;;;3.50;;
3487;SDS011;38546;48.170;11.724;2022-10-03T15:57:07;4.23;;;3.63;;
3487;SDS011;38546;48.170;11.724;2022-10-03T16:00:18;3.90;;;3.50;;
3487;SDS011;38546;48.170;11.724;2022-10-03T16:03:27;4.43;;;3.20;;
3487;SDS011;38546;48.170;11.724;2022-10-03T16:07:53;6.13;;;3.43;;
3487;SDS011;38546;48.170;11.724;2022-10-03T16:11:05;5.30;;;3.37;;
3487;SDS011;38546;48.170;11.724;2022-10-03T16:16:06;4.73;;;2.70;;
3487;SDS011;38546;48.170;11.724;2022-10-03T16:19:37;4.30;;;2.80;;
3487;SDS011;38546;48.170;11.724;2022-10-03T16:28:39;2.80;;;2.60;;
3487;SDS011;38546;48.170;11.724;2022-10-03T16:31:51;6.40;;;3.43;;
3487;SDS011;38546;48.170;11.724;2022-10-03T16:35:13;6.27;;;3.70;;
3487;SDS011;38546;48.170;11.724;2022-10-03T16:38:57;6.47;;;5.40;;
3487;SDS011;38546;48.170;11.724;2022-10-03T16:41:50;8.57;;;6.97;;
3487;SDS011;38546;48.170;11.724;2022-10-03T16:44:47;9.60;;;7.47;;
3487;SDS011;38546;48.170;11.724;2022-10-03T16:47:40;5.80;;;4.10;;
3487;SDS011;38546;48.170;11.724;2022-10-03T16:50:30;5.27;;;3.60;;
3487;SDS011;38546;48.170;11.724;2022-10-03T16:53:21;4.37;;;3.97;;
3487;SDS011;38546;48.170;11.724;2022-10-03T16:56:15;6.40;;;4.03;;
3487;SDS011;38546;48.170;11.724;2022-10-03T16:59:11;5.43;;;4.07;;
3487;SDS011;38546;48.170;11.724;2022-10-03T17:02:08;7.80;;;5.57;;
3487;SDS011;38546;48.170;11.724;2022-10-03T17:05:03;4.60;;;3.63;;
3487;SDS011;38546;48.170;11.724;2022-10-03T17:07:57;6.23;;;5.37;;
3487;SDS011;38546;48.170;11.724;2022-10-03T17:10:53;10.80;;;5.80;;
3487;SDS011;38546;48.170;11.724;2022-10-03T17:13:47;9.30;;;5.90;;
3487;SDS011;38546;48.170;11.724;2022-10-03T17:16:41;5.77;;;4.53;;
3487;SDS011;38546;48.170;11.724;2022-10-03T17:19:56;10.33;;;5.37;;
3487;SDS011;38546;48.170;11.724;2022-10-03T17:23:02;6.57;;;4.47;;
3487;SDS011;38546;48.170;11.724;2022-10-03T17:28:51;7.93;;;5.20;;
3487;SDS011;38546;48.170;11.724;2022-10-03T17:32:13;7.63;;;5.23;;
3487;SDS011;38546;48.170;11.724;2022-10-03T17:35:25;7.60;;;5.00;;
3487;SDS011;38546;48.170;11.724;2022-10-03T17:38:48;6.80;;;5.50;;
3487;SDS011;38546;48.170;11.724;2022-10-03T17:42:06;7.50;;;6.17;;
3487;SDS011;38546;48.170;11.724;2022-10-03T17:54:35;11.37;;;7.10;;
3487;SDS011;38546;48.170;11.724;2022-10-03T17:57:27;10.00;;;7.07;;
3487;SDS011;38546;48.170;11.724;2022-10-03T18:00:33;11.80;;;6.33;;
3487;SDS011;38546;48.170;11.724;2022-10-03T18:04:34;13.63;;;7.53;;
3487;SDS011;38546;48.170;11.724;2022-10-03T18:07:27;9.23;;;7.27;;
3487;SDS011;38546;48.170;11.724;2022-10-03T18:10:19;8.30;;;6.63;;
3487;SDS011;38546;48.170;11.724;2022-10-03T18:13:20;7.67;;;6.83;;
3487;SDS011;38546;48.170;11.724;2022-10-03T18:16:21;10.20;;;6.90;;
3487;SDS011;38546;48.170;11.724;2022-10-03T18:19:29;14.03;;;7.60;;
3487;SDS011;38546;48.170;11.724;2022-10-03T18:22:53;11.80;;;9.30;;
3487;SDS011;38546;48.170;11.724;2022-10-03T18:25:56;12.30;;;9.00;;
3487;SDS011;38546;48.170;11.724;2022-10-03T18:28:58;16.03;;;10.37;;
3487;SDS011;38546;48.170;11.724;2022-10-03T18:32:24;14.00;;;10.50;;
3487;SDS011;38546;48.170;11.724;2022-10-03T18:35:21;16.97;;;11.20;;
3487;SDS011;38546;48.170;11.724;2022-10-03T18:38:20;13.60;;;10.23;;
3487;SDS011;38546;48.170;11.724;2022-10-03T18:41:15;13.20;;;9.90;;
3487;SDS011;38546;48.170;11.724;2022-10-03T18:44:11;15.93;;;10.00;;
3487;SDS011;38546;48.170;11.724;2022-10-03T18:47:10;10.63;;;8.77;;
3487;SDS011;38546;48.170;11.724;2022-10-03T18:50:56;9.10;;;6.17;;
3487;SDS011;38546;48.170;11.724;2022-10-03T18:55:13;7.40;;;5.13;;
3487;SDS011;38546;48.170;11.724;2022-10-03T18:58:18;7.13;;;5.63;;
3487;SDS011;38546;48.170;11.724;2022-10-03T19:01:16;10.33;;;6.17;;
3487;SDS011;38546;48.170;11.724;2022-10-03T19:04:14;8.03;;;6.13;;
3487;SDS011;38546;48.170;11.724;2022-10-03T19:07:18;6.30;;;5.70;;
3487;SDS011;38546;48.170;11.724;2022-10-03T19:10:20;16.87;;;6.70;;
3487;SDS011;38546;48.170;11.724;2022-10-03T19:13:38;7.23;;;6.47;;
3487;SDS011;38546;48.170;11.724;2022-10-03T19:22:42;8.97;;;7.07;;
3487;SDS011;38546;48.170;11.724;2022-10-03T19:25:50;10.00;;;7.77;;
3487;SDS011;38546;48.170;11.724;2022-10-03T19:28:45;15.03;;;7.80;;
3487;SDS011;38546;48.170;11.724;2022-10-03T19:31:44;21.40;;;7.50;;
3487;SDS011;38546;48.170;11.724;2022-10-03T19:35:12;8.37;;;6.83;;
3487;SDS011;38546;48.170;11.724;2022-10-03T19:38:14;14.20;;;7.40;;
3487;SDS011;38546;48.170;11.724;2022-10-03T19:41:23;9.60;;;6.83;;
3487;SDS011;38546;48.170;11.724;2022-10-03T19:44:23;12.10;;;7.23;;
3487;SDS011;38546;48.170;11.724;2022-10-03T19:47:15;9.80;;;6.67;;
3487;SDS011;38546;48.170;11.724;2022-10-03T19:53:25;10.67;;;7.10;;
3487;SDS011;38546;48.170;11.724;2022-10-03T19:56:15;12.17;;;7.20;;
3487;SDS011;38546;48.170;11.724;2022-10-03T19:59:13;8.97;;;6.43;;
3487;SDS011;38546;48.170;11.724;2022-10-03T20:02:05;12.40;;;7.60;;
3487;SDS011;38546;48.170;11.724;2022-10-03T20:04:55;7.80;;;6.10;;
3487;SDS011;38546;48.170;11.724;2022-10-03T20:07:46;8.23;;;5.73;;
3487;SDS011;38546;48.170;11.724;2022-10-03T20:15:26;11.53;;;7.10;;
3487;SDS011;38546;48.170;11.724;2022-10-03T20:18:22;12.33;;;7.33;;
3487;SDS011;38546;48.170;11.724;2022-10-03T20:21:25;10.57;;;7.07;;
3487;SDS011;38546;48.170;11.724;2022-10-03T20:24:17;11.73;;;7.17;;
3487;SDS011;38546;48.170;11.724;2022-10-03T20:32:23;10.80;;;7.90;;
3487;SDS011;38546;48.170;11.724;2022-10-03T20:45:22;11.23;;;7.37;;
3487;SDS011;38546;48.170;11.724;2022-10-03T20:48:15;10.50;;;6.67;;
3487;SDS011;38546;48.170;11.724;2022-10-03T20:51:21;17.30;;;8.63;;
3487;SDS011;38546;48.170;11.724;2022-10-03T20:54:12;11.80;;;8.17;;
3487;SDS011;38546;48.170;11.724;2022-10-03T21:02:47;12.00;;;8.20;;
3487;SDS011;38546;48.170;11.724;2022-10-03T21:08:47;12.60;;;8.00;;
3487;SDS011;38546;48.170;11.724;2022-10-03T21:11:37;13.67;;;8.03;;
3487;SDS011;38546;48.170;11.724;2022-10-03T21:14:27;11.10;;;8.07;;
3487;SDS011;38546;48.170;11.724;2022-10-03T21:17:20;12.13;;;8.97;;
3487;SDS011;38546;48.170;11.724;2022-10-03T21:20:12;19.30;;;9.40;;
3487;SDS011;38546;48.170;11.724;2022-10-03T21:27:41;15.93;;;10.17;;
3487;SDS011;38546;48.170;11.724;2022-10-03T21:30:49;17.53;;;11.30;;
3487;SDS011;38546;48.170;11.724;2022-10-03T21:34:05;16.03;;;10.30;;
3487;SDS011;38546;48.170;11.724;2022-10-03T21:37:13;14.93;;;10.40;;
3487;SDS011;38546;48.170;11.724;2022-10-03T21:41:46;17.67;;;11.00;;
3487;SDS011;38546;48.170;11.724;2022-10-03T21:46:24;16.90;;;11.30;;
3487;SDS011;38546;48.170;11.724;2022-10-03T21:53:24;23.53;;;12.70;;
3487;SDS011;38546;48.170;11.724;2022-10-03T22:07:56;19.97;;;11.73;;
3487;SDS011;38546;48.170;11.724;2022-10-03T22:10:50;18.53;;;12.03;;
3487;SDS011;38546;48.170;11.724;2022-10-03T22:17:41;21.80;;;12.03;;
3487;SDS011;38546;48.170;11.724;2022-10-03T22:20:46;16.90;;;11.20;;
3487;SDS011;38546;48.170;11.724;2022-10-03T22:24:03;21.70;;;11.50;;
3487;SDS011;38546;48.170;11.724;2022-10-03T22:27:21;18.67;;;12.10;;
3487;SDS011;38546;48.170;11.724;2022-10-03T22:30:29;17.37;;;11.73;;
3487;SDS011;38546;48.170;11.724;2022-10-03T22:33:41;18.57;;;11.97;;
3487;SDS011;38546;48.170;11.724;2022-10-03T22:37:09;13.30;;;10.20;;
3487;SDS011;38546;48.170;11.724;2022-10-03T22:40:00;16.57;;;11.93;;
3487;SDS011;38546;48.170;11.724;2022-10-03T22:42:52;18.37;;;11.87;;
3487;SDS011;38546;48.170;11.724;2022-10-03T22:45:45;16.77;;;10.67;;
3487;SDS011;38546;48.170;11.724;2022-10-03T22:48:40;15.53;;;11.73;;
3487;SDS011;38546;48.170;11.724;2022-10-03T22:51:35;13.80;;;10.00;;
3487;SDS011;38546;48.170;11.724;2022-10-03T22:54:29;16.90;;;10.90;;
3487;SDS011;38546;48.170;11.724;2022-10-03T22:57:26;15.93;;;11.33;;
3487;SDS011;38546;48.170;11.724;2022-10-03T23:00:19;19.47;;;11.03;;
3487;SDS011;38546;48.170;11.724;2022-10-03T23:03:22;18.07;;;10.50;;
3487;SDS011;38546;48.170;11.724;2022-10-03T23:13:43;14.80;;;10.23;;
3487;SDS011;38546;48.170;11.724;2022-10-03T23:21:24;15.30;;;10.23;;
3487;SDS011;38546;48.170;11.724;2022-10-03T23:24:19;14.93;;;10.40;;
3487;SDS011;38546;48.170;11.724;2022-10-03T23:27:29;15.10;;;10.27;;
3487;SDS011;38546;48.170;11.724;2022-10-03T23:44:53;13.27;;;10.17;;
3487;SDS011;38546;48.170;11.724;2022-10-03T23:51:32;11.13;;;8.53;;
3487;SDS011;38546;48.170;11.724;2022-10-03T23:54:23;13.90;;;8.60;;
3487;SDS011;38546;48.170;11.724;2022-10-03T23:57:14;17.73;;;10.50;;
